TimeMDT,TemperatureF,Dew PointF,Humidity,Sea Level PressureIn,VisibilityMPH,Wind Direction,Wind SpeedMPH,Gust SpeedMPH,PrecipitationIn,Events,Conditions,WindDirDegrees,DateUTC
12:56 AM,37.9,36.0,93,29.77,-9999.0,Calm,Calm,-,N/A,,Unknown,0,2013-05-23 06:56:00
1:56 AM,37.0,36.0,96,29.78,-9999.0,Calm,Calm,-,0.02,,Unknown,0,2013-05-23 07:56:00
2:56 AM,37.0,35.1,93,29.78,-9999.0,Calm,Calm,-,0.02,,Unknown,0,2013-05-23 08:56:00
3:56 AM,35.1,33.1,92,29.81,-9999.0,Calm,Calm,-,N/A,,Unknown,0,2013-05-23 09:56:00
4:56 AM,32.0,30.9,96,29.80,-9999.0,Calm,Calm,-,N/A,,Unknown,0,2013-05-23 10:56:00
5:56 AM,33.1,30.9,92,29.84,-9999.0,Calm,Calm,-,N/A,,Unknown,0,2013-05-23 11:56:00
6:56 AM,34.0,32.0,92,29.87,-9999.0,West,3.5,-,N/A,,Unknown,280,2013-05-23 12:56:00
7:56 AM,35.1,33.1,92,29.86,-9999.0,Calm,Calm,-,N/A,,Unknown,0,2013-05-23 13:56:00
8:56 AM,35.1,33.1,92,29.86,-9999.0,SE,3.5,-,N/A,,Unknown,130,2013-05-23 14:56:00
9:56 AM,36.0,33.1,89,29.87,-9999.0,Variable,3.5,-,N/A,,Unknown,0,2013-05-23 15:56:00
10:56 AM,39.0,35.1,86,29.86,-9999.0,Variable,3.5,-,N/A,,Unknown,0,2013-05-23 16:56:00
11:56 AM,41.0,36.0,82,29.85,-9999.0,East,3.5,-,N/A,,Unknown,90,2013-05-23 17:56:00
12:56 PM,46.0,37.0,71,29.80,-9999.0,Calm,Calm,-,N/A,,Unknown,0,2013-05-23 18:56:00
1:56 PM,43.0,37.9,82,29.83,-9999.0,Variable,4.6,-,N/A,,Unknown,0,2013-05-23 19:56:00
2:56 PM,44.1,39.0,82,29.83,-9999.0,East,3.5,-,0.01,,Unknown,100,2013-05-23 20:56:00
3:56 PM,48.0,37.0,66,29.80,-9999.0,ESE,3.5,-,N/A,,Unknown,110,2013-05-23 21:56:00
4:56 PM,48.9,36.0,61,29.80,-9999.0,Calm,Calm,-,N/A,,Unknown,0,2013-05-23 22:56:00
5:56 PM,50.0,34.0,54,29.80,-9999.0,Variable,3.5,-,N/A,,Unknown,0,2013-05-23 23:56:00
6:56 PM,48.0,36.0,63,29.81,-9999.0,Variable,6.9,-,N/A,,Unknown,0,2013-05-24 00:56:00
7:56 PM,42.1,37.0,82,29.88,-9999.0,Calm,Calm,-,0.02,,Unknown,0,2013-05-24 01:56:00
8:56 PM,42.1,37.9,85,29.87,-9999.0,Calm,Calm,-,N/A,,Unknown,0,2013-05-24 02:56:00
9:56 PM,39.9,37.9,93,29.87,-9999.0,Calm,Calm,-,N/A,,Unknown,0,2013-05-24 03:56:00
10:56 PM,39.0,36.0,89,29.86,-9999.0,NW,3.5,-,N/A,,Unknown,310,2013-05-24 04:56:00
11:56 PM,39.0,34.0,82,29.88,-9999.0,Variable,6.9,16.1,N/A,,Unknown,0,2013-05-24 05:56:00